sensor_id;sensor_type;location;lat;lon;timestamp;P1;durP1;ratioP1;P2;durP2;ratioP2
4305;SDS011;2166;49.926;8.608;2023-06-26T00:00:55;7.78;;;4.80;;
4305;SDS011;2166;49.926;8.608;2023-06-26T00:03:25;6.13;;;4.95;;
4305;SDS011;2166;49.926;8.608;2023-06-26T00:05:55;7.53;;;5.05;;
4305;SDS011;2166;49.926;8.608;2023-06-26T00:08:27;8.43;;;5.20;;
4305;SDS011;2166;49.926;8.608;2023-06-26T00:10:56;6.13;;;5.22;;
4305;SDS011;2166;49.926;8.608;2023-06-26T00:13:24;7.40;;;5.78;;
4305;SDS011;2166;49.926;8.608;2023-06-26T00:15:52;7.53;;;5.47;;
4305;SDS011;2166;49.926;8.608;2023-06-26T00:18:21;7.05;;;5.25;;
4305;SDS011;2166;49.926;8.608;2023-06-26T00:20:52;11.48;;;5.93;;
4305;SDS011;2166;49.926;8.608;2023-06-26T00:23:21;10.18;;;6.45;;
4305;SDS011;2166;49.926;8.608;2023-06-26T00:25:50;8.43;;;5.28;;
4305;SDS011;2166;49.926;8.608;2023-06-26T00:28:18;8.73;;;5.07;;
4305;SDS011;2166;49.926;8.608;2023-06-26T00:30:46;6.47;;;5.65;;
4305;SDS011;2166;49.926;8.608;2023-06-26T00:33:15;12.60;;;6.10;;
4305;SDS011;2166;49.926;8.608;2023-06-26T00:35:44;6.60;;;5.57;;
4305;SDS011;2166;49.926;8.608;2023-06-26T00:38:13;12.25;;;6.53;;
4305;SDS011;2166;49.926;8.608;2023-06-26T00:40:42;7.82;;;6.03;;
4305;SDS011;2166;49.926;8.608;2023-06-26T00:43:11;7.40;;;6.00;;
4305;SDS011;2166;49.926;8.608;2023-06-26T00:45:40;9.52;;;6.47;;
4305;SDS011;2166;49.926;8.608;2023-06-26T00:48:10;8.23;;;6.93;;
4305;SDS011;2166;49.926;8.608;2023-06-26T00:50:40;10.40;;;7.35;;
4305;SDS011;2166;49.926;8.608;2023-06-26T00:53:10;11.18;;;6.85;;
4305;SDS011;2166;49.926;8.608;2023-06-26T00:55:42;11.95;;;7.00;;
4305;SDS011;2166;49.926;8.608;2023-06-26T00:58:10;12.57;;;7.72;;
4305;SDS011;2166;49.926;8.608;2023-06-26T01:00:39;10.63;;;7.30;;
4305;SDS011;2166;49.926;8.608;2023-06-26T01:03:12;13.75;;;7.40;;
4305;SDS011;2166;49.926;8.608;2023-06-26T01:05:40;11.07;;;6.72;;
4305;SDS011;2166;49.926;8.608;2023-06-26T01:08:12;8.00;;;6.35;;
4305;SDS011;2166;49.926;8.608;2023-06-26T01:10:43;9.45;;;7.07;;
4305;SDS011;2166;49.926;8.608;2023-06-26T01:13:14;8.02;;;6.57;;
4305;SDS011;2166;49.926;8.608;2023-06-26T01:15:44;7.75;;;6.97;;
4305;SDS011;2166;49.926;8.608;2023-06-26T01:18:14;7.25;;;6.55;;
4305;SDS011;2166;49.926;8.608;2023-06-26T01:20:43;8.68;;;7.25;;
4305;SDS011;2166;49.926;8.608;2023-06-26T01:23:14;8.48;;;6.88;;
4305;SDS011;2166;49.926;8.608;2023-06-26T01:25:54;11.77;;;6.47;;
4305;SDS011;2166;49.926;8.608;2023-06-26T01:28:32;8.60;;;7.03;;
4305;SDS011;2166;49.926;8.608;2023-06-26T01:31:02;7.50;;;6.20;;
4305;SDS011;2166;49.926;8.608;2023-06-26T01:33:32;7.70;;;6.90;;
4305;SDS011;2166;49.926;8.608;2023-06-26T01:36:02;8.27;;;7.28;;
4305;SDS011;2166;49.926;8.608;2023-06-26T01:38:34;8.55;;;6.57;;
4305;SDS011;2166;49.926;8.608;2023-06-26T01:41:03;9.90;;;7.22;;
4305;SDS011;2166;49.926;8.608;2023-06-26T01:43:39;9.23;;;7.22;;
4305;SDS011;2166;49.926;8.608;2023-06-26T01:46:16;8.85;;;6.63;;
4305;SDS011;2166;49.926;8.608;2023-06-26T01:48:51;9.43;;;6.43;;
4305;SDS011;2166;49.926;8.608;2023-06-26T01:51:27;8.38;;;6.63;;
4305;SDS011;2166;49.926;8.608;2023-06-26T01:53:59;8.82;;;6.40;;
4305;SDS011;2166;49.926;8.608;2023-06-26T01:56:29;14.60;;;6.97;;
4305;SDS011;2166;49.926;8.608;2023-06-26T01:58:59;7.82;;;6.15;;
4305;SDS011;2166;49.926;8.608;2023-06-26T02:01:32;9.38;;;7.05;;
4305;SDS011;2166;49.926;8.608;2023-06-26T02:04:01;8.82;;;6.55;;
4305;SDS011;2166;49.926;8.608;2023-06-26T02:06:30;10.50;;;6.43;;
4305;SDS011;2166;49.926;8.608;2023-06-26T02:08:59;9.00;;;7.00;;
4305;SDS011;2166;49.926;8.608;2023-06-26T02:11:28;8.35;;;6.57;;
4305;SDS011;2166;49.926;8.608;2023-06-26T02:14:00;9.80;;;6.82;;
4305;SDS011;2166;49.926;8.608;2023-06-26T02:16:29;7.03;;;6.32;;
4305;SDS011;2166;49.926;8.608;2023-06-26T02:18:57;10.93;;;6.43;;
4305;SDS011;2166;49.926;8.608;2023-06-26T02:21:25;14.48;;;7.65;;
4305;SDS011;2166;49.926;8.608;2023-06-26T02:23:56;10.93;;;7.40;;
4305;SDS011;2166;49.926;8.608;2023-06-26T02:26:24;10.93;;;6.43;;
4305;SDS011;2166;49.926;8.608;2023-06-26T02:28:53;13.88;;;5.93;;
4305;SDS011;2166;49.926;8.608;2023-06-26T02:31:23;7.63;;;6.85;;
4305;SDS011;2166;49.926;8.608;2023-06-26T02:33:54;9.50;;;6.95;;
4305;SDS011;2166;49.926;8.608;2023-06-26T02:36:23;11.30;;;6.60;;
4305;SDS011;2166;49.926;8.608;2023-06-26T02:38:52;17.33;;;6.57;;
4305;SDS011;2166;49.926;8.608;2023-06-26T02:41:20;13.73;;;6.47;;
4305;SDS011;2166;49.926;8.608;2023-06-26T02:43:50;7.82;;;6.13;;
4305;SDS011;2166;49.926;8.608;2023-06-26T02:46:19;10.90;;;6.78;;
4305;SDS011;2166;49.926;8.608;2023-06-26T02:48:52;11.93;;;6.38;;
4305;SDS011;2166;49.926;8.608;2023-06-26T02:51:24;8.13;;;6.43;;
4305;SDS011;2166;49.926;8.608;2023-06-26T02:53:54;7.82;;;6.63;;
4305;SDS011;2166;49.926;8.608;2023-06-26T02:56:22;10.02;;;7.10;;
4305;SDS011;2166;49.926;8.608;2023-06-26T02:58:58;8.13;;;6.82;;
4305;SDS011;2166;49.926;8.608;2023-06-26T03:01:28;10.80;;;6.82;;
4305;SDS011;2166;49.926;8.608;2023-06-26T03:03:58;9.05;;;7.40;;
4305;SDS011;2166;49.926;8.608;2023-06-26T03:06:27;8.15;;;6.80;;
4305;SDS011;2166;49.926;8.608;2023-06-26T03:08:56;9.18;;;6.68;;
4305;SDS011;2166;49.926;8.608;2023-06-26T03:11:24;9.57;;;6.90;;
4305;SDS011;2166;49.926;8.608;2023-06-26T03:13:54;7.95;;;7.00;;
4305;SDS011;2166;49.926;8.608;2023-06-26T03:16:24;10.65;;;6.47;;
4305;SDS011;2166;49.926;8.608;2023-06-26T03:18:53;8.93;;;7.18;;
4305;SDS011;2166;49.926;8.608;2023-06-26T03:21:23;8.80;;;7.13;;
4305;SDS011;2166;49.926;8.608;2023-06-26T03:23:52;8.45;;;7.30;;
4305;SDS011;2166;49.926;8.608;2023-06-26T03:26:22;8.45;;;6.47;;
4305;SDS011;2166;49.926;8.608;2023-06-26T03:28:55;8.88;;;7.47;;
4305;SDS011;2166;49.926;8.608;2023-06-26T03:31:23;11.55;;;6.78;;
4305;SDS011;2166;49.926;8.608;2023-06-26T03:33:52;11.38;;;7.10;;
4305;SDS011;2166;49.926;8.608;2023-06-26T03:36:20;9.57;;;7.15;;
4305;SDS011;2166;49.926;8.608;2023-06-26T03:38:51;9.10;;;7.07;;
4305;SDS011;2166;49.926;8.608;2023-06-26T03:41:24;8.85;;;6.65;;
4305;SDS011;2166;49.926;8.608;2023-06-26T03:43:53;10.38;;;7.75;;
4305;SDS011;2166;49.926;8.608;2023-06-26T03:46:29;8.50;;;6.90;;
4305;SDS011;2166;49.926;8.608;2023-06-26T03:48:57;8.27;;;7.05;;
4305;SDS011;2166;49.926;8.608;2023-06-26T03:51:27;8.85;;;7.53;;
4305;SDS011;2166;49.926;8.608;2023-06-26T03:53:56;14.07;;;8.10;;
4305;SDS011;2166;49.926;8.608;2023-06-26T03:56:26;10.10;;;7.03;;
4305;SDS011;2166;49.926;8.608;2023-06-26T03:58:54;10.73;;;6.93;;
4305;SDS011;2166;49.926;8.608;2023-06-26T04:01:23;13.73;;;8.63;;
4305;SDS011;2166;49.926;8.608;2023-06-26T04:03:52;11.57;;;7.10;;
4305;SDS011;2166;49.926;8.608;2023-06-26T04:06:21;10.00;;;7.70;;
4305;SDS011;2166;49.926;8.608;2023-06-26T04:08:51;13.80;;;8.02;;
4305;SDS011;2166;49.926;8.608;2023-06-26T04:11:19;12.27;;;8.05;;
4305;SDS011;2166;49.926;8.608;2023-06-26T04:13:48;14.10;;;7.82;;
4305;SDS011;2166;49.926;8.608;2023-06-26T04:16:17;13.27;;;8.63;;
4305;SDS011;2166;49.926;8.608;2023-06-26T04:18:47;13.77;;;8.77;;
4305;SDS011;2166;49.926;8.608;2023-06-26T04:21:15;12.10;;;7.72;;
4305;SDS011;2166;49.926;8.608;2023-06-26T04:23:44;13.57;;;7.18;;
4305;SDS011;2166;49.926;8.608;2023-06-26T04:26:15;15.07;;;8.40;;
4305;SDS011;2166;49.926;8.608;2023-06-26T04:28:43;12.98;;;8.10;;
4305;SDS011;2166;49.926;8.608;2023-06-26T04:31:13;11.55;;;8.40;;
4305;SDS011;2166;49.926;8.608;2023-06-26T04:33:42;11.00;;;8.27;;
4305;SDS011;2166;49.926;8.608;2023-06-26T04:36:10;14.15;;;8.18;;
4305;SDS011;2166;49.926;8.608;2023-06-26T04:38:39;10.98;;;7.78;;
4305;SDS011;2166;49.926;8.608;2023-06-26T04:41:07;11.88;;;7.28;;
4305;SDS011;2166;49.926;8.608;2023-06-26T04:43:37;9.88;;;7.55;;
4305;SDS011;2166;49.926;8.608;2023-06-26T04:46:06;8.32;;;7.53;;
4305;SDS011;2166;49.926;8.608;2023-06-26T04:48:35;9.10;;;7.63;;
4305;SDS011;2166;49.926;8.608;2023-06-26T04:51:03;10.18;;;7.72;;
4305;SDS011;2166;49.926;8.608;2023-06-26T04:53:31;10.98;;;7.22;;
4305;SDS011;2166;49.926;8.608;2023-06-26T04:56:00;17.83;;;7.32;;
4305;SDS011;2166;49.926;8.608;2023-06-26T04:58:28;20.60;;;7.50;;
4305;SDS011;2166;49.926;8.608;2023-06-26T05:00:58;9.52;;;7.75;;
4305;SDS011;2166;49.926;8.608;2023-06-26T05:03:29;9.48;;;6.80;;
4305;SDS011;2166;49.926;8.608;2023-06-26T05:05:57;9.90;;;7.03;;
4305;SDS011;2166;49.926;8.608;2023-06-26T05:08:34;7.93;;;7.13;;
4305;SDS011;2166;49.926;8.608;2023-06-26T05:11:03;9.50;;;6.93;;
4305;SDS011;2166;49.926;8.608;2023-06-26T05:13:31;13.13;;;6.97;;
4305;SDS011;2166;49.926;8.608;2023-06-26T05:16:01;8.32;;;7.18;;
4305;SDS011;2166;49.926;8.608;2023-06-26T05:18:30;9.07;;;7.63;;
4305;SDS011;2166;49.926;8.608;2023-06-26T05:20:59;10.45;;;6.85;;
4305;SDS011;2166;49.926;8.608;2023-06-26T05:23:28;10.75;;;7.25;;
4305;SDS011;2166;49.926;8.608;2023-06-26T05:26:05;12.48;;;7.55;;
4305;SDS011;2166;49.926;8.608;2023-06-26T05:28:34;10.35;;;7.53;;
4305;SDS011;2166;49.926;8.608;2023-06-26T05:31:05;8.40;;;7.03;;
4305;SDS011;2166;49.926;8.608;2023-06-26T05:33:34;13.65;;;7.90;;
4305;SDS011;2166;49.926;8.608;2023-06-26T05:36:04;13.15;;;7.90;;
4305;SDS011;2166;49.926;8.608;2023-06-26T05:38:35;13.02;;;8.48;;
4305;SDS011;2166;49.926;8.608;2023-06-26T05:41:04;14.52;;;7.75;;
4305;SDS011;2166;49.926;8.608;2023-06-26T05:43:33;12.60;;;7.60;;
4305;SDS011;2166;49.926;8.608;2023-06-26T05:46:03;11.70;;;8.23;;
4305;SDS011;2166;49.926;8.608;2023-06-26T05:48:31;14.20;;;7.85;;
4305;SDS011;2166;49.926;8.608;2023-06-26T05:51:00;12.82;;;7.75;;
4305;SDS011;2166;49.926;8.608;2023-06-26T05:53:31;12.30;;;7.88;;
4305;SDS011;2166;49.926;8.608;2023-06-26T05:56:00;10.82;;;8.07;;
4305;SDS011;2166;49.926;8.608;2023-06-26T05:58:29;14.30;;;8.15;;
4305;SDS011;2166;49.926;8.608;2023-06-26T06:00:57;12.40;;;7.57;;
4305;SDS011;2166;49.926;8.608;2023-06-26T06:03:28;10.23;;;6.97;;
4305;SDS011;2166;49.926;8.608;2023-06-26T06:05:56;19.45;;;7.95;;
4305;SDS011;2166;49.926;8.608;2023-06-26T06:08:25;12.02;;;7.70;;
4305;SDS011;2166;49.926;8.608;2023-06-26T06:10:55;13.00;;;8.02;;
4305;SDS011;2166;49.926;8.608;2023-06-26T06:13:23;9.00;;;7.20;;
4305;SDS011;2166;49.926;8.608;2023-06-26T06:15:51;9.13;;;7.15;;
4305;SDS011;2166;49.926;8.608;2023-06-26T06:18:20;10.90;;;6.53;;
4305;SDS011;2166;49.926;8.608;2023-06-26T06:20:52;7.90;;;6.28;;
4305;SDS011;2166;49.926;8.608;2023-06-26T06:23:21;9.30;;;6.60;;
4305;SDS011;2166;49.926;8.608;2023-06-26T06:25:51;11.05;;;6.22;;
4305;SDS011;2166;49.926;8.608;2023-06-26T06:28:19;6.95;;;6.22;;
4305;SDS011;2166;49.926;8.608;2023-06-26T06:30:48;8.20;;;6.13;;
4305;SDS011;2166;49.926;8.608;2023-06-26T06:33:17;7.88;;;6.10;;
4305;SDS011;2166;49.926;8.608;2023-06-26T06:35:46;10.60;;;6.95;;
4305;SDS011;2166;49.926;8.608;2023-06-26T06:38:16;11.90;;;6.75;;
4305;SDS011;2166;49.926;8.608;2023-06-26T06:40:44;8.65;;;6.75;;
4305;SDS011;2166;49.926;8.608;2023-06-26T06:43:12;9.73;;;6.80;;
4305;SDS011;2166;49.926;8.608;2023-06-26T06:45:42;10.40;;;6.47;;
4305;SDS011;2166;49.926;8.608;2023-06-26T06:48:10;10.55;;;7.20;;
4305;SDS011;2166;49.926;8.608;2023-06-26T06:50:38;8.82;;;6.60;;
4305;SDS011;2166;49.926;8.608;2023-06-26T06:53:07;10.45;;;6.88;;
4305;SDS011;2166;49.926;8.608;2023-06-26T06:55:37;14.25;;;7.00;;
4305;SDS011;2166;49.926;8.608;2023-06-26T06:58:07;11.43;;;6.57;;
4305;SDS011;2166;49.926;8.608;2023-06-26T07:00:35;12.50;;;6.32;;
4305;SDS011;2166;49.926;8.608;2023-06-26T07:03:04;9.35;;;6.32;;
4305;SDS011;2166;49.926;8.608;2023-06-26T07:05:33;7.15;;;6.22;;
4305;SDS011;2166;49.926;8.608;2023-06-26T07:08:01;9.48;;;6.78;;
4305;SDS011;2166;49.926;8.608;2023-06-26T07:10:30;7.50;;;6.40;;
4305;SDS011;2166;49.926;8.608;2023-06-26T07:13:00;9.45;;;6.40;;
4305;SDS011;2166;49.926;8.608;2023-06-26T07:15:32;9.05;;;6.90;;
4305;SDS011;2166;49.926;8.608;2023-06-26T07:18:01;10.52;;;6.88;;
4305;SDS011;2166;49.926;8.608;2023-06-26T07:20:30;9.52;;;5.80;;
4305;SDS011;2166;49.926;8.608;2023-06-26T07:22:58;7.00;;;6.30;;
4305;SDS011;2166;49.926;8.608;2023-06-26T07:25:27;6.45;;;5.80;;
4305;SDS011;2166;49.926;8.608;2023-06-26T07:27:55;12.50;;;6.55;;
4305;SDS011;2166;49.926;8.608;2023-06-26T07:30:25;7.00;;;5.47;;
4305;SDS011;2166;49.926;8.608;2023-06-26T07:32:53;7.78;;;5.88;;
4305;SDS011;2166;49.926;8.608;2023-06-26T07:35:22;8.85;;;5.82;;
4305;SDS011;2166;49.926;8.608;2023-06-26T07:37:51;6.70;;;4.93;;
4305;SDS011;2166;49.926;8.608;2023-06-26T07:40:20;9.38;;;5.07;;
4305;SDS011;2166;49.926;8.608;2023-06-26T07:42:49;8.02;;;5.53;;
4305;SDS011;2166;49.926;8.608;2023-06-26T07:45:17;7.63;;;5.57;;
4305;SDS011;2166;49.926;8.608;2023-06-26T07:47:50;8.82;;;5.55;;
4305;SDS011;2166;49.926;8.608;2023-06-26T07:50:18;5.50;;;5.00;;
4305;SDS011;2166;49.926;8.608;2023-06-26T07:52:49;7.32;;;5.00;;
4305;SDS011;2166;49.926;8.608;2023-06-26T07:55:20;8.85;;;4.90;;
4305;SDS011;2166;49.926;8.608;2023-06-26T07:57:48;7.00;;;5.32;;
4305;SDS011;2166;49.926;8.608;2023-06-26T08:00:18;8.90;;;5.72;;
4305;SDS011;2166;49.926;8.608;2023-06-26T08:02:47;7.82;;;5.78;;
4305;SDS011;2166;49.926;8.608;2023-06-26T08:05:17;10.48;;;6.00;;
4305;SDS011;2166;49.926;8.608;2023-06-26T08:07:48;9.18;;;5.78;;
4305;SDS011;2166;49.926;8.608;2023-06-26T08:10:16;7.57;;;5.35;;
4305;SDS011;2166;49.926;8.608;2023-06-26T08:12:45;8.15;;;5.18;;
4305;SDS011;2166;49.926;8.608;2023-06-26T08:15:15;6.88;;;5.20;;
4305;SDS011;2166;49.926;8.608;2023-06-26T08:17:48;6.05;;;5.10;;
4305;SDS011;2166;49.926;8.608;2023-06-26T08:20:18;5.50;;;4.95;;
4305;SDS011;2166;49.926;8.608;2023-06-26T08:22:47;7.88;;;5.25;;
4305;SDS011;2166;49.926;8.608;2023-06-26T08:25:17;8.05;;;5.30;;
4305;SDS011;2166;49.926;8.608;2023-06-26T08:27:46;9.07;;;5.40;;
4305;SDS011;2166;49.926;8.608;2023-06-26T08:30:14;11.10;;;5.47;;
4305;SDS011;2166;49.926;8.608;2023-06-26T08:32:43;6.65;;;5.78;;
4305;SDS011;2166;49.926;8.608;2023-06-26T08:35:12;7.38;;;5.45;;
4305;SDS011;2166;49.926;8.608;2023-06-26T08:37:44;7.30;;;5.18;;
4305;SDS011;2166;49.926;8.608;2023-06-26T08:40:13;15.93;;;5.75;;
4305;SDS011;2166;49.926;8.608;2023-06-26T08:42:45;7.07;;;5.53;;
4305;SDS011;2166;49.926;8.608;2023-06-26T08:45:13;6.80;;;4.95;;
4305;SDS011;2166;49.926;8.608;2023-06-26T08:47:42;8.55;;;5.10;;
4305;SDS011;2166;49.926;8.608;2023-06-26T08:50:13;7.90;;;5.25;;
4305;SDS011;2166;49.926;8.608;2023-06-26T08:52:46;6.05;;;5.13;;
4305;SDS011;2166;49.926;8.608;2023-06-26T08:55:20;5.32;;;4.82;;
4305;SDS011;2166;49.926;8.608;2023-06-26T08:57:51;5.97;;;5.00;;
4305;SDS011;2166;49.926;8.608;2023-06-26T09:00:21;7.40;;;5.07;;
4305;SDS011;2166;49.926;8.608;2023-06-26T09:02:50;5.25;;;4.65;;
4305;SDS011;2166;49.926;8.608;2023-06-26T09:05:19;5.50;;;4.90;;
4305;SDS011;2166;49.926;8.608;2023-06-26T09:07:49;8.93;;;4.70;;
4305;SDS011;2166;49.926;8.608;2023-06-26T09:10:24;6.00;;;5.15;;
4305;SDS011;2166;49.926;8.608;2023-06-26T09:12:55;5.10;;;4.60;;
4305;SDS011;2166;49.926;8.608;2023-06-26T09:15:27;5.55;;;3.90;;
4305;SDS011;2166;49.926;8.608;2023-06-26T09:18:05;4.85;;;4.30;;
4305;SDS011;2166;49.926;8.608;2023-06-26T09:20:36;5.82;;;4.50;;
4305;SDS011;2166;49.926;8.608;2023-06-26T09:23:06;6.70;;;4.10;;
4305;SDS011;2166;49.926;8.608;2023-06-26T09:25:37;6.05;;;4.47;;
4305;SDS011;2166;49.926;8.608;2023-06-26T09:28:09;5.03;;;4.25;;
4305;SDS011;2166;49.926;8.608;2023-06-26T09:30:38;15.02;;;4.95;;
4305;SDS011;2166;49.926;8.608;2023-06-26T09:33:13;5.53;;;4.32;;
4305;SDS011;2166;49.926;8.608;2023-06-26T09:35:44;10.00;;;3.95;;
4305;SDS011;2166;49.926;8.608;2023-06-26T09:38:14;5.68;;;4.03;;
4305;SDS011;2166;49.926;8.608;2023-06-26T09:40:44;7.00;;;4.53;;
4305;SDS011;2166;49.926;8.608;2023-06-26T09:43:13;4.45;;;4.00;;
4305;SDS011;2166;49.926;8.608;2023-06-26T09:45:42;4.57;;;4.05;;
4305;SDS011;2166;49.926;8.608;2023-06-26T09:48:14;6.35;;;4.93;;
4305;SDS011;2166;49.926;8.608;2023-06-26T09:50:44;4.90;;;3.78;;
4305;SDS011;2166;49.926;8.608;2023-06-26T09:53:36;5.82;;;4.30;;
4305;SDS011;2166;49.926;8.608;2023-06-26T09:56:05;6.95;;;3.80;;
4305;SDS011;2166;49.926;8.608;2023-06-26T09:58:35;5.15;;;4.03;;
4305;SDS011;2166;49.926;8.608;2023-06-26T10:01:07;5.45;;;4.25;;
4305;SDS011;2166;49.926;8.608;2023-06-26T10:03:36;6.03;;;4.50;;
4305;SDS011;2166;49.926;8.608;2023-06-26T10:06:05;4.28;;;3.80;;
4305;SDS011;2166;49.926;8.608;2023-06-26T10:08:39;7.32;;;4.03;;
4305;SDS011;2166;49.926;8.608;2023-06-26T10:11:12;6.07;;;3.67;;
4305;SDS011;2166;49.926;8.608;2023-06-26T10:13:44;4.20;;;3.80;;
4305;SDS011;2166;49.926;8.608;2023-06-26T10:16:16;4.18;;;3.50;;
4305;SDS011;2166;49.926;8.608;2023-06-26T10:18:51;6.20;;;3.90;;
4305;SDS011;2166;49.926;8.608;2023-06-26T10:21:21;4.22;;;3.70;;
4305;SDS011;2166;49.926;8.608;2023-06-26T10:23:52;4.70;;;4.10;;
4305;SDS011;2166;49.926;8.608;2023-06-26T10:26:22;5.65;;;4.00;;
4305;SDS011;2166;49.926;8.608;2023-06-26T10:28:54;7.10;;;3.88;;
4305;SDS011;2166;49.926;8.608;2023-06-26T10:31:25;5.18;;;3.92;;
4305;SDS011;2166;49.926;8.608;2023-06-26T10:33:57;4.53;;;3.75;;
4305;SDS011;2166;49.926;8.608;2023-06-26T10:36:28;4.45;;;3.67;;
4305;SDS011;2166;49.926;8.608;2023-06-26T10:39:05;4.43;;;4.00;;
4305;SDS011;2166;49.926;8.608;2023-06-26T10:41:38;4.13;;;3.50;;
4305;SDS011;2166;49.926;8.608;2023-06-26T10:44:26;8.32;;;3.90;;
4305;SDS011;2166;49.926;8.608;2023-06-26T10:46:55;4.35;;;3.65;;
4305;SDS011;2166;49.926;8.608;2023-06-26T10:49:25;6.00;;;4.05;;
4305;SDS011;2166;49.926;8.608;2023-06-26T10:51:56;5.20;;;3.85;;
4305;SDS011;2166;49.926;8.608;2023-06-26T10:54:32;4.13;;;3.80;;
4305;SDS011;2166;49.926;8.608;2023-06-26T10:57:01;8.25;;;3.95;;
4305;SDS011;2166;49.926;8.608;2023-06-26T10:59:32;5.07;;;3.97;;
4305;SDS011;2166;49.926;8.608;2023-06-26T11:02:04;5.00;;;3.40;;
4305;SDS011;2166;49.926;8.608;2023-06-26T11:04:38;4.17;;;3.77;;
4305;SDS011;2166;49.926;8.608;2023-06-26T11:07:16;4.95;;;3.72;;
4305;SDS011;2166;49.926;8.608;2023-06-26T11:09:57;8.18;;;4.00;;
4305;SDS011;2166;49.926;8.608;2023-06-26T11:12:36;5.05;;;3.45;;
4305;SDS011;2166;49.926;8.608;2023-06-26T11:15:10;5.40;;;3.70;;
4305;SDS011;2166;49.926;8.608;2023-06-26T11:17:40;5.07;;;3.78;;
4305;SDS011;2166;49.926;8.608;2023-06-26T11:20:10;4.68;;;3.53;;
4305;SDS011;2166;49.926;8.608;2023-06-26T11:22:43;4.50;;;3.35;;
4305;SDS011;2166;49.926;8.608;2023-06-26T11:25:13;5.10;;;3.63;;
4305;SDS011;2166;49.926;8.608;2023-06-26T11:27:43;5.68;;;3.33;;
4305;SDS011;2166;49.926;8.608;2023-06-26T11:30:22;3.75;;;3.35;;
4305;SDS011;2166;49.926;8.608;2023-06-26T11:32:53;4.22;;;3.42;;
4305;SDS011;2166;49.926;8.608;2023-06-26T11:35:29;4.22;;;3.33;;
4305;SDS011;2166;49.926;8.608;2023-06-26T11:37:59;4.15;;;3.30;;
4305;SDS011;2166;49.926;8.608;2023-06-26T11:40:33;3.85;;;3.53;;
4305;SDS011;2166;49.926;8.608;2023-06-26T11:43:03;6.10;;;3.25;;
4305;SDS011;2166;49.926;8.608;2023-06-26T11:45:32;4.82;;;3.78;;
4305;SDS011;2166;49.926;8.608;2023-06-26T11:48:00;4.32;;;3.85;;
4305;SDS011;2166;49.926;8.608;2023-06-26T11:50:29;6.13;;;3.58;;
4305;SDS011;2166;49.926;8.608;2023-06-26T11:52:59;7.78;;;3.47;;
4305;SDS011;2166;49.926;8.608;2023-06-26T11:55:39;4.95;;;3.90;;
4305;SDS011;2166;49.926;8.608;2023-06-26T11:58:11;5.60;;;3.60;;
4305;SDS011;2166;49.926;8.608;2023-06-26T12:00:42;5.45;;;3.85;;
4305;SDS011;2166;49.926;8.608;2023-06-26T12:03:13;8.75;;;4.78;;
4305;SDS011;2166;49.926;8.608;2023-06-26T12:05:42;5.22;;;4.53;;
4305;SDS011;2166;49.926;8.608;2023-06-26T12:08:11;14.77;;;5.38;;
4305;SDS011;2166;49.926;8.608;2023-06-26T12:10:42;8.45;;;4.45;;
4305;SDS011;2166;49.926;8.608;2023-06-26T12:13:11;7.70;;;5.78;;
4305;SDS011;2166;49.926;8.608;2023-06-26T12:15:39;9.57;;;4.93;;
4305;SDS011;2166;49.926;8.608;2023-06-26T12:18:08;8.43;;;6.13;;
4305;SDS011;2166;49.926;8.608;2023-06-26T12:20:39;7.00;;;6.30;;
4305;SDS011;2166;49.926;8.608;2023-06-26T12:23:13;11.07;;;5.53;;
4305;SDS011;2166;49.926;8.608;2023-06-26T12:25:43;7.68;;;6.97;;
4305;SDS011;2166;49.926;8.608;2023-06-26T12:28:16;9.60;;;7.93;;
4305;SDS011;2166;49.926;8.608;2023-06-26T12:30:45;8.90;;;7.20;;
4305;SDS011;2166;49.926;8.608;2023-06-26T12:33:15;8.35;;;7.38;;
4305;SDS011;2166;49.926;8.608;2023-06-26T12:35:45;9.18;;;7.03;;
4305;SDS011;2166;49.926;8.608;2023-06-26T12:38:13;7.88;;;6.75;;
4305;SDS011;2166;49.926;8.608;2023-06-26T12:40:46;10.35;;;7.18;;
4305;SDS011;2166;49.926;8.608;2023-06-26T12:43:22;7.03;;;6.25;;
4305;SDS011;2166;49.926;8.608;2023-06-26T12:45:53;8.40;;;6.88;;
4305;SDS011;2166;49.926;8.608;2023-06-26T12:48:35;8.75;;;7.00;;
4305;SDS011;2166;49.926;8.608;2023-06-26T12:51:10;9.20;;;6.90;;
4305;SDS011;2166;49.926;8.608;2023-06-26T12:53:40;9.40;;;7.15;;
4305;SDS011;2166;49.926;8.608;2023-06-26T12:56:10;8.05;;;5.47;;
4305;SDS011;2166;49.926;8.608;2023-06-26T12:58:39;13.30;;;6.97;;
4305;SDS011;2166;49.926;8.608;2023-06-26T13:01:11;7.28;;;5.82;;
4305;SDS011;2166;49.926;8.608;2023-06-26T13:03:41;7.55;;;5.25;;
4305;SDS011;2166;49.926;8.608;2023-06-26T13:06:12;5.88;;;5.10;;
4305;SDS011;2166;49.926;8.608;2023-06-26T13:08:44;5.93;;;4.55;;
4305;SDS011;2166;49.926;8.608;2023-06-26T13:11:17;4.25;;;3.75;;
4305;SDS011;2166;49.926;8.608;2023-06-26T13:13:48;3.90;;;3.25;;
4305;SDS011;2166;49.926;8.608;2023-06-26T13:16:36;4.38;;;3.58;;
4305;SDS011;2166;49.926;8.608;2023-06-26T13:19:05;3.92;;;3.53;;
4305;SDS011;2166;49.926;8.608;2023-06-26T13:21:34;5.40;;;3.13;;
4305;SDS011;2166;49.926;8.608;2023-06-26T13:24:03;5.20;;;3.85;;
4305;SDS011;2166;49.926;8.608;2023-06-26T13:26:35;6.82;;;3.70;;
4305;SDS011;2166;49.926;8.608;2023-06-26T13:29:05;8.88;;;4.28;;
4305;SDS011;2166;49.926;8.608;2023-06-26T13:31:34;7.80;;;4.20;;
4305;SDS011;2166;49.926;8.608;2023-06-26T13:34:05;8.85;;;3.90;;
4305;SDS011;2166;49.926;8.608;2023-06-26T13:36:34;8.05;;;3.42;;
4305;SDS011;2166;49.926;8.608;2023-06-26T13:39:04;5.65;;;3.80;;
4305;SDS011;2166;49.926;8.608;2023-06-26T13:41:35;6.90;;;3.35;;
4305;SDS011;2166;49.926;8.608;2023-06-26T13:44:04;5.55;;;3.88;;
4305;SDS011;2166;49.926;8.608;2023-06-26T13:46:55;10.40;;;3.70;;
4305;SDS011;2166;49.926;8.608;2023-06-26T13:49:24;8.25;;;3.83;;
4305;SDS011;2166;49.926;8.608;2023-06-26T13:51:53;8.10;;;3.25;;
4305;SDS011;2166;49.926;8.608;2023-06-26T13:54:22;8.90;;;3.95;;
4305;SDS011;2166;49.926;8.608;2023-06-26T13:56:52;6.05;;;3.35;;
4305;SDS011;2166;49.926;8.608;2023-06-26T13:59:25;7.28;;;3.53;;
4305;SDS011;2166;49.926;8.608;2023-06-26T14:01:54;6.10;;;3.28;;
4305;SDS011;2166;49.926;8.608;2023-06-26T14:04:23;4.20;;;3.58;;
4305;SDS011;2166;49.926;8.608;2023-06-26T14:06:52;6.30;;;3.22;;
4305;SDS011;2166;49.926;8.608;2023-06-26T14:09:21;8.13;;;3.30;;
4305;SDS011;2166;49.926;8.608;2023-06-26T14:11:50;6.40;;;3.00;;
4305;SDS011;2166;49.926;8.608;2023-06-26T14:14:21;3.55;;;3.08;;
4305;SDS011;2166;49.926;8.608;2023-06-26T14:16:50;7.90;;;3.22;;
4305;SDS011;2166;49.926;8.608;2023-06-26T14:19:19;4.45;;;3.13;;
4305;SDS011;2166;49.926;8.608;2023-06-26T14:21:48;5.40;;;3.15;;
4305;SDS011;2166;49.926;8.608;2023-06-26T14:24:16;6.75;;;2.53;;
4305;SDS011;2166;49.926;8.608;2023-06-26T14:26:45;8.20;;;2.95;;
4305;SDS011;2166;49.926;8.608;2023-06-26T14:29:14;5.80;;;2.85;;
4305;SDS011;2166;49.926;8.608;2023-06-26T14:31:45;4.80;;;2.80;;
4305;SDS011;2166;49.926;8.608;2023-06-26T14:34:17;8.93;;;2.83;;
4305;SDS011;2166;49.926;8.608;2023-06-26T14:36:46;4.90;;;2.33;;
4305;SDS011;2166;49.926;8.608;2023-06-26T14:39:15;4.80;;;2.70;;
4305;SDS011;2166;49.926;8.608;2023-06-26T14:41:44;5.65;;;3.00;;
4305;SDS011;2166;49.926;8.608;2023-06-26T14:44:14;6.47;;;3.00;;
4305;SDS011;2166;49.926;8.608;2023-06-26T14:46:44;4.45;;;2.45;;
4305;SDS011;2166;49.926;8.608;2023-06-26T14:49:13;7.60;;;3.05;;
4305;SDS011;2166;49.926;8.608;2023-06-26T14:51:41;9.48;;;2.75;;
4305;SDS011;2166;49.926;8.608;2023-06-26T14:54:10;7.53;;;2.65;;
4305;SDS011;2166;49.926;8.608;2023-06-26T14:56:39;11.35;;;2.83;;
4305;SDS011;2166;49.926;8.608;2023-06-26T14:59:10;8.30;;;3.00;;
4305;SDS011;2166;49.926;8.608;2023-06-26T15:01:39;3.03;;;2.10;;
4305;SDS011;2166;49.926;8.608;2023-06-26T15:04:09;4.85;;;1.98;;
4305;SDS011;2166;49.926;8.608;2023-06-26T15:06:38;6.50;;;1.98;;
4305;SDS011;2166;49.926;8.608;2023-06-26T15:09:07;5.43;;;2.13;;
4305;SDS011;2166;49.926;8.608;2023-06-26T15:11:37;5.68;;;2.05;;
4305;SDS011;2166;49.926;8.608;2023-06-26T15:14:05;5.78;;;2.00;;
4305;SDS011;2166;49.926;8.608;2023-06-26T15:16:34;6.30;;;2.15;;
4305;SDS011;2166;49.926;8.608;2023-06-26T15:19:03;5.18;;;1.95;;
4305;SDS011;2166;49.926;8.608;2023-06-26T15:21:33;8.57;;;2.17;;
4305;SDS011;2166;49.926;8.608;2023-06-26T15:24:02;5.43;;;2.00;;
4305;SDS011;2166;49.926;8.608;2023-06-26T15:26:31;4.03;;;1.90;;
4305;SDS011;2166;49.926;8.608;2023-06-26T15:28:59;5.35;;;2.08;;
4305;SDS011;2166;49.926;8.608;2023-06-26T15:31:31;8.00;;;2.00;;